Time;durP1;ratioP1;P1;durP2;ratioP2;P2;SDS_P1;SDS_P2;PMS_P1;PMS_P2;Temp;Humidity;BMP_temperature;BMP_pressure;BME280_temperature;BME280_humidity;BME280_pressure;Samples;Min_cycle;Max_cycle;Signal;HPM_P1;HPM_P2
2023/05/29 00:02:14;;;;;;;9.20;6.77;;;21.60;44.00;;;;;;5031888;28;20552;-50
2023/05/29 00:04:40;;;;;;;7.23;5.60;;;21.60;44.30;;;;;;5032867;28;20208;-50
2023/05/29 00:07:05;;;;;;;7.80;5.53;;;21.60;44.40;;;;;;5048729;28;20188;-49
2023/05/29 00:09:31;;;;;;;9.87;6.20;;;21.50;44.50;;;;;;5044724;28;20193;-49
2023/05/29 00:11:57;;;;;;;8.77;6.17;;;21.50;44.50;;;;;;5033253;28;20220;-49
2023/05/29 00:14:23;;;;;;;7.20;5.90;;;21.50;44.50;;;;;;5032816;28;20696;-50
2023/05/29 00:16:50;;;;;;;8.57;5.80;;;21.50;44.60;;;;;;5033105;28;20221;-49
2023/05/29 00:19:16;;;;;;;10.83;6.50;;;21.40;44.70;;;;;;5033017;28;20793;-49
2023/05/29 00:21:42;;;;;;;6.57;5.80;;;21.40;44.80;;;;;;5032911;28;20435;-49
2023/05/29 00:24:08;;;;;;;10.00;6.67;;;21.30;44.70;;;;;;5032865;28;20559;-50
2023/05/29 00:26:34;;;;;;;5.93;5.33;;;21.30;44.90;;;;;;5033136;28;20504;-48
2023/05/29 00:28:59;;;;;;;6.33;5.73;;;21.20;44.80;;;;;;5031355;28;20185;-48
2023/05/29 00:31:25;;;;;;;8.53;5.63;;;21.20;44.80;;;;;;5032647;28;20281;-50
2023/05/29 00:33:54;;;;;;;8.30;5.53;;;21.20;44.80;;;;;;5032444;28;20201;-49
2023/05/29 00:36:19;;;;;;;9.07;5.53;;;21.20;44.80;;;;;;5032697;28;20225;-48
2023/05/29 00:38:45;;;;;;;8.07;5.50;;;21.10;44.90;;;;;;5032677;28;20432;-49
2023/05/29 00:41:16;;;;;;;6.87;5.33;;;21.10;45.00;;;;;;5032686;28;20235;-49
2023/05/29 00:43:42;;;;;;;8.00;5.87;;;21.00;44.90;;;;;;5032308;28;20189;-49
2023/05/29 00:46:11;;;;;;;7.30;5.63;;;21.00;45.10;;;;;;5032440;28;20836;-49
2023/05/29 00:48:37;;;;;;;6.30;5.37;;;21.00;44.90;;;;;;5032499;28;20852;-48
2023/05/29 00:51:02;;;;;;;8.67;5.77;;;21.00;44.90;;;;;;5032426;28;20424;-50
2023/05/29 00:53:28;;;;;;;7.30;6.00;;;20.90;44.90;;;;;;5038397;28;20202;-52
2023/05/29 00:55:54;;;;;;;6.93;5.27;;;20.90;44.80;;;;;;5048645;28;20224;-52
2023/05/29 00:58:21;;;;;;;9.40;5.53;;;20.90;45.00;;;;;;5032502;28;20224;-49
2023/05/29 01:00:47;;;;;;;10.77;6.10;;;20.90;45.00;;;;;;5032404;28;20189;-49
2023/05/29 01:03:14;;;;;;;6.37;5.17;;;20.90;44.90;;;;;;5031900;28;20459;-49
2023/05/29 01:05:41;;;;;;;8.97;6.17;;;20.90;44.90;;;;;;5035649;28;20224;-50
2023/05/29 01:08:07;;;;;;;7.10;5.87;;;20.90;44.70;;;;;;5051777;28;20427;-50
2023/05/29 01:10:34;;;;;;;8.30;5.37;;;20.90;44.90;;;;;;5034956;28;20796;-49
2023/05/29 01:13:19;;;;;;;8.47;5.07;;;20.90;44.90;;;;;;5031788;28;20193;-49
2023/05/29 01:16:10;;;;;;;7.23;5.60;;;20.90;44.70;;;;;;5038616;28;20479;-50
2023/05/29 01:18:46;;;;;;;5.97;4.70;;;20.80;44.30;;;;;;5051846;28;20484;-50
2023/05/29 01:21:41;;;;;;;9.17;5.37;;;20.80;44.30;;;;;;5050301;28;20984;-49
2023/05/29 01:24:33;;;;;;;4.97;4.50;;;20.90;45.10;;;;;;5051711;28;20424;-49
2023/05/29 01:27:04;;;;;;;5.60;4.67;;;20.80;44.70;;;;;;5051971;28;20852;-48
2023/05/29 01:29:34;;;;;;;5.97;5.37;;;20.80;44.60;;;;;;5051675;28;20441;-49
2023/05/29 01:32:01;;;;;;;8.50;5.37;;;20.80;44.60;;;;;;5051626;28;20474;-48
2023/05/29 01:34:27;;;;;;;8.40;5.43;;;20.80;44.70;;;;;;5051112;28;21027;-49
2023/05/29 01:36:53;;;;;;;6.97;5.10;;;20.70;44.70;;;;;;5051783;28;20530;-48
2023/05/29 01:39:20;;;;;;;7.23;6.37;;;20.70;44.80;;;;;;5051890;28;20220;-49
2023/05/29 01:41:47;;;;;;;6.00;5.40;;;20.70;44.60;;;;;;5051591;28;20197;-49
2023/05/29 01:44:14;;;;;;;11.57;5.40;;;20.70;44.70;;;;;;5051343;28;20522;-52
2023/05/29 01:46:41;;;;;;;7.17;5.60;;;20.70;45.00;;;;;;5029976;28;20935;-49
2023/05/29 01:49:09;;;;;;;7.30;5.23;;;20.60;45.60;;;;;;5031513;28;20416;-49
2023/05/29 01:51:35;;;;;;;7.37;5.73;;;20.60;45.90;;;;;;5031641;28;20431;-49
2023/05/29 01:54:01;;;;;;;6.20;5.30;;;20.60;45.70;;;;;;5043510;28;20805;-49
2023/05/29 01:56:28;;;;;;;7.33;5.20;;;20.50;45.50;;;;;;5044096;28;20492;-49
2023/05/29 01:58:55;;;;;;;6.97;5.30;;;20.40;45.40;;;;;;5031523;28;20420;-49
2023/05/29 02:01:24;;;;;;;9.20;5.80;;;20.40;45.60;;;;;;5031628;28;20485;-49
2023/05/29 02:03:53;;;;;;;7.63;5.17;;;20.40;45.60;;;;;;5031180;28;20424;-50
2023/05/29 02:06:19;;;;;;;7.10;5.17;;;20.40;45.80;;;;;;5040442;28;20544;-48
2023/05/29 02:08:44;;;;;;;6.40;5.40;;;20.20;46.00;;;;;;5049266;28;20431;-50
2023/05/29 02:11:10;;;;;;;6.50;5.40;;;20.20;46.20;;;;;;5031471;28;20515;-49
2023/05/29 02:13:36;;;;;;;6.70;6.00;;;20.20;46.40;;;;;;5029332;28;20217;-48
2023/05/29 02:16:01;;;;;;;5.70;5.20;;;20.10;46.30;;;;;;5031168;28;20225;-50
2023/05/29 02:18:27;;;;;;;7.23;5.10;;;20.10;46.30;;;;;;5031408;28;20189;-49
2023/05/29 02:20:52;;;;;;;8.93;6.37;;;20.10;46.40;;;;;;5032968;28;20235;-49
2023/05/29 02:23:19;;;;;;;8.10;6.30;;;20.00;46.50;;;;;;5034768;28;20391;-49
2023/05/29 02:25:45;;;;;;;8.37;5.80;;;20.00;47.10;;;;;;5035540;28;20729;-50
2023/05/29 02:28:10;;;;;;;8.10;5.60;;;19.90;47.40;;;;;;5035137;28;20448;-49
2023/05/29 02:30:36;;;;;;;7.57;5.70;;;19.90;47.60;;;;;;5035077;28;20459;-48
2023/05/29 02:33:02;;;;;;;8.97;5.90;;;19.80;47.20;;;;;;5034520;28;20239;-49
2023/05/29 02:35:27;;;;;;;7.00;5.43;;;19.80;47.20;;;;;;5034942;28;20227;-49
2023/05/29 02:37:53;;;;;;;8.23;6.20;;;19.70;47.20;;;;;;5035232;28;20547;-49
2023/05/29 02:40:20;;;;;;;10.40;6.67;;;19.70;47.30;;;;;;5033787;28;20200;-49
2023/05/29 02:42:46;;;;;;;7.17;5.70;;;19.70;47.30;;;;;;5034580;28;20224;-48
2023/05/29 02:45:12;;;;;;;8.70;6.20;;;19.60;47.30;;;;;;5034805;28;20439;-49
2023/05/29 02:47:38;;;;;;;9.60;5.93;;;19.60;47.70;;;;;;5034775;28;20431;-49
2023/05/29 02:50:05;;;;;;;8.03;5.60;;;19.60;48.20;;;;;;5034766;28;20220;-49
2023/05/29 02:52:32;;;;;;;7.17;6.47;;;19.60;48.40;;;;;;5034551;28;20416;-50
2023/05/29 02:54:58;;;;;;;7.10;5.77;;;19.60;48.40;;;;;;5054468;28;21164;-48
2023/05/29 02:57:24;;;;;;;6.57;5.40;;;19.60;48.20;;;;;;5038886;28;20432;-52
2023/05/29 02:59:51;;;;;;;7.03;5.40;;;19.50;47.90;;;;;;5034827;28;20778;-48
2023/05/29 03:02:17;;;;;;;7.20;5.60;;;19.40;47.80;;;;;;5034485;28;20435;-49
2023/05/29 03:04:43;;;;;;;7.87;5.47;;;19.30;47.80;;;;;;5033945;28;20439;-48
2023/05/29 03:07:09;;;;;;;6.70;5.97;;;19.30;47.90;;;;;;5048726;28;20411;-49
2023/05/29 03:09:35;;;;;;;5.73;5.00;;;19.20;48.00;;;;;;5054443;28;20200;-48
2023/05/29 03:12:01;;;;;;;6.40;5.10;;;19.10;48.20;;;;;;5054268;28;20517;-49
2023/05/29 03:14:27;;;;;;;8.80;6.50;;;19.00;48.20;;;;;;5054183;28;20434;-48
2023/05/29 03:16:53;;;;;;;6.20;5.60;;;19.00;48.40;;;;;;5054077;28;20923;-48
2023/05/29 03:19:19;;;;;;;8.37;5.90;;;19.00;48.70;;;;;;5054345;28;20549;-48
2023/05/29 03:21:45;;;;;;;6.50;5.60;;;18.90;48.80;;;;;;5054240;28;20887;-48
2023/05/29 03:24:10;;;;;;;8.00;6.43;;;18.90;49.00;;;;;;5053964;28;20200;-48
2023/05/29 03:26:36;;;;;;;7.77;5.93;;;18.90;49.10;;;;;;5054202;28;20193;-50
2023/05/29 03:29:02;;;;;;;8.33;5.70;;;18.90;49.00;;;;;;5054030;28;20462;-50
2023/05/29 03:31:28;;;;;;;7.03;6.33;;;18.90;49.00;;;;;;5053474;28;20188;-48
2023/05/29 03:33:53;;;;;;;7.77;6.07;;;18.90;48.90;;;;;;5052230;28;20204;-50
2023/05/29 03:36:19;;;;;;;7.17;5.90;;;19.00;48.80;;;;;;5054043;28;20231;-49
2023/05/29 03:38:45;;;;;;;6.77;5.80;;;18.90;48.90;;;;;;5053762;28;20284;-48
2023/05/29 03:41:10;;;;;;;6.80;5.10;;;18.90;48.80;;;;;;5053819;28;20193;-50
2023/05/29 03:43:37;;;;;;;6.17;5.57;;;18.90;48.90;;;;;;5053273;28;20200;-48
2023/05/29 03:46:02;;;;;;;7.13;5.60;;;18.90;49.00;;;;;;5053537;28;20197;-50
2023/05/29 03:48:28;;;;;;;8.20;6.57;;;18.90;49.00;;;;;;5053836;28;21012;-49
2023/05/29 03:50:53;;;;;;;7.30;5.80;;;18.80;49.10;;;;;;5053719;28;20707;-51
2023/05/29 03:53:19;;;;;;;12.30;6.27;;;18.80;49.30;;;;;;5046671;28;20641;-48
2023/05/29 03:55:45;;;;;;;7.30;4.87;;;18.80;49.30;;;;;;5033542;28;20217;-50
2023/05/29 03:58:12;;;;;;;9.13;5.13;;;18.70;49.30;;;;;;5033609;28;20200;-48
2023/05/29 04:00:38;;;;;;;7.43;5.07;;;18.70;49.40;;;;;;5031973;28;20262;-49
2023/05/29 04:03:04;;;;;;;6.17;5.17;;;18.70;49.40;;;;;;5033234;28;20803;-48
2023/05/29 04:05:30;;;;;;;6.50;5.20;;;18.60;49.40;;;;;;5035567;28;20479;-50
2023/05/29 04:07:56;;;;;;;5.63;5.03;;;18.60;49.50;;;;;;5053031;28;20196;-52
2023/05/29 04:10:24;;;;;;;7.10;5.27;;;18.50;49.60;;;;;;5037341;28;20908;-49
2023/05/29 04:12:50;;;;;;;7.47;5.70;;;18.50;49.60;;;;;;5032746;28;20553;-49
2023/05/29 04:15:16;;;;;;;6.37;5.60;;;18.50;49.80;;;;;;5032888;28;20498;-49
2023/05/29 04:17:41;;;;;;;6.13;5.53;;;18.50;49.80;;;;;;5033057;28;20420;-48
2023/05/29 04:20:08;;;;;;;8.80;5.83;;;18.50;49.90;;;;;;5032832;28;20238;-48
2023/05/29 04:22:37;;;;;;;9.03;5.90;;;18.50;50.10;;;;;;5032744;28;20561;-52
2023/05/29 04:25:03;;;;;;;8.17;5.87;;;18.50;50.20;;;;;;5032204;28;20805;-49
2023/05/29 04:27:32;;;;;;;9.47;5.93;;;18.60;50.30;;;;;;5031982;28;20440;-48
2023/05/29 04:29:58;;;;;;;6.20;4.70;;;18.60;50.50;;;;;;5031464;28;20440;-51
2023/05/29 04:32:23;;;;;;;7.70;6.30;;;18.60;50.40;;;;;;5033124;28;20519;-50
2023/05/29 04:34:49;;;;;;;5.93;5.33;;;18.60;50.30;;;;;;5032133;28;20850;-48
2023/05/29 04:37:15;;;;;;;5.83;5.23;;;18.60;50.20;;;;;;5032652;28;20622;-49
2023/05/29 04:39:40;;;;;;;8.40;5.47;;;18.70;50.30;;;;;;5032473;28;20182;-48
2023/05/29 04:42:06;;;;;;;6.63;5.10;;;18.70;50.10;;;;;;5032557;28;20224;-48
2023/05/29 04:44:32;;;;;;;8.37;5.03;;;18.70;49.80;;;;;;5031212;28;20240;-49
2023/05/29 04:46:58;;;;;;;6.40;5.33;;;18.70;49.80;;;;;;5032493;28;20428;-48
2023/05/29 04:49:24;;;;;;;7.50;5.33;;;18.70;49.90;;;;;;5032391;28;20786;-52
2023/05/29 04:51:52;;;;;;;5.77;5.23;;;18.80;50.00;;;;;;5031067;28;20193;-49
2023/05/29 04:54:19;;;;;;;5.20;4.60;;;18.80;49.90;;;;;;5046581;28;20204;-49
2023/05/29 04:56:46;;;;;;;6.77;5.33;;;18.90;50.00;;;;;;5042012;28;20431;-49
2023/05/29 04:59:12;;;;;;;8.10;5.87;;;18.90;49.90;;;;;;5032100;28;20448;-49
2023/05/29 05:01:37;;;;;;;7.20;5.40;;;18.90;49.80;;;;;;5032162;28;20478;-49
2023/05/29 05:04:03;;;;;;;7.93;5.73;;;19.00;49.80;;;;;;5031697;28;20951;-50
2023/05/29 05:06:29;;;;;;;9.00;6.67;;;19.00;49.90;;;;;;5042570;28;20232;-49
2023/05/29 05:08:55;;;;;;;7.23;5.20;;;19.00;50.00;;;;;;5048493;28;20220;-49
2023/05/29 05:11:22;;;;;;;5.73;5.00;;;19.00;49.90;;;;;;5032091;28;20221;-48
2023/05/29 05:13:48;;;;;;;7.60;5.77;;;19.10;49.90;;;;;;5031444;28;20448;-49
2023/05/29 05:16:13;;;;;;;6.30;5.40;;;19.10;49.90;;;;;;5031693;28;20487;-48
2023/05/29 05:18:39;;;;;;;6.60;5.90;;;19.20;49.90;;;;;;5030427;28;20196;-49
2023/05/29 05:21:06;;;;;;;7.10;5.90;;;19.20;49.80;;;;;;5032363;28;20238;-49
2023/05/29 05:23:31;;;;;;;6.27;5.60;;;19.30;49.80;;;;;;5031330;28;20581;-49
2023/05/29 05:25:57;;;;;;;6.17;5.20;;;19.40;49.70;;;;;;5031749;28;20515;-49
2023/05/29 05:28:23;;;;;;;7.40;6.60;;;19.40;49.60;;;;;;5031938;28;20197;-49
2023/05/29 05:30:48;;;;;;;7.43;6.10;;;19.50;49.60;;;;;;5031984;28;20196;-51
2023/05/29 05:33:14;;;;;;;6.47;5.70;;;19.60;49.50;;;;;;5031116;28;20197;-50
2023/05/29 05:35:40;;;;;;;6.10;5.43;;;19.60;49.60;;;;;;5031685;28;20232;-50
2023/05/29 05:38:06;;;;;;;6.93;5.30;;;19.70;49.40;;;;;;5031612;28;20200;-49
2023/05/29 05:40:32;;;;;;;6.33;5.40;;;19.70;49.30;;;;;;5031489;28;20201;-50
2023/05/29 05:42:57;;;;;;;6.80;5.37;;;19.70;49.70;;;;;;5031096;28;20438;-50
2023/05/29 05:45:23;;;;;;;8.20;5.93;;;19.80;49.40;;;;;;5030179;28;20220;-48
2023/05/29 05:47:48;;;;;;;7.93;5.87;;;19.90;49.10;;;;;;5031442;28;20201;-49
2023/05/29 05:50:15;;;;;;;7.70;6.23;;;19.90;48.60;;;;;;5031485;28;20204;-49
2023/05/29 05:52:40;;;;;;;7.43;6.57;;;20.10;48.30;;;;;;5032008;28;20201;-48
2023/05/29 05:55:07;;;;;;;7.50;5.83;;;20.20;48.20;;;;;;5050938;28;20958;-50
2023/05/29 05:57:33;;;;;;;8.77;6.50;;;20.30;48.30;;;;;;5034644;28;20204;-48
2023/05/29 06:00:00;;;;;;;9.83;6.07;;;20.40;48.30;;;;;;5031249;28;20424;-49
2023/05/29 06:02:25;;;;;;;7.40;5.70;;;20.50;47.90;;;;;;5030744;28;20444;-50
2023/05/29 06:04:51;;;;;;;6.73;5.80;;;20.60;47.90;;;;;;5031270;28;20438;-49
2023/05/29 06:07:17;;;;;;;7.57;6.50;;;20.70;48.30;;;;;;5048380;28;20457;-49
2023/05/29 06:09:43;;;;;;;6.50;5.33;;;20.80;48.40;;;;;;5040926;28;20522;-49
2023/05/29 06:12:09;;;;;;;6.93;5.87;;;20.90;48.50;;;;;;5030147;28;20193;-50
2023/05/29 06:14:35;;;;;;;8.13;5.97;;;21.00;48.60;;;;;;5030856;28;20280;-49
2023/05/29 06:17:01;;;;;;;8.57;6.53;;;21.20;48.30;;;;;;5031198;28;20432;-49
2023/05/29 06:19:26;;;;;;;6.40;5.70;;;21.30;48.20;;;;;;5031152;28;20204;-51
2023/05/29 06:21:52;;;;;;;7.67;6.20;;;21.40;48.20;;;;;;5031209;28;20197;-49
2023/05/29 06:24:18;;;;;;;10.20;6.40;;;21.40;48.60;;;;;;5030772;28;20193;-49
2023/05/29 06:26:43;;;;;;;8.07;5.53;;;21.60;47.60;;;;;;5031159;28;20772;-49
2023/05/29 06:29:09;;;;;;;7.27;5.90;;;21.70;47.70;;;;;;5031208;28;20190;-50
2023/05/29 06:31:34;;;;;;;7.13;5.60;;;21.80;47.80;;;;;;5031154;28;20193;-49
2023/05/29 06:34:00;;;;;;;7.37;6.20;;;21.90;47.10;;;;;;5031077;28;20194;-49
2023/05/29 06:36:26;;;;;;;10.00;7.70;;;22.00;47.20;;;;;;5031046;28;20229;-49
2023/05/29 06:38:52;;;;;;;7.03;4.80;;;22.00;46.90;;;;;;5029685;28;20199;-48
2023/05/29 06:41:18;;;;;;;6.50;5.60;;;22.20;46.50;;;;;;5031132;28;20320;-49
2023/05/29 06:43:43;;;;;;;10.47;5.87;;;22.20;45.90;;;;;;5030708;28;20534;-49
2023/05/29 06:46:10;;;;;;;7.07;5.00;;;22.40;46.10;;;;;;5031037;28;20551;-49
2023/05/29 06:48:35;;;;;;;6.70;5.47;;;22.40;45.70;;;;;;5031133;28;20186;-49
2023/05/29 06:51:08;;;;;;;9.70;5.53;;;22.60;45.40;;;;;;5031042;28;20793;-50
2023/05/29 06:53:41;;;;;;;5.73;5.20;;;22.70;44.70;;;;;;5039272;28;20653;-50
2023/05/29 06:56:07;;;;;;;5.63;4.97;;;22.90;44.90;;;;;;5046183;28;20479;-49
2023/05/29 06:58:33;;;;;;;5.63;4.87;;;23.10;44.80;;;;;;5031010;28;20782;-49
2023/05/29 07:00:59;;;;;;;9.73;5.77;;;23.20;44.00;;;;;;5030947;28;20423;-49
2023/05/29 07:03:25;;;;;;;7.57;4.80;;;23.30;43.70;;;;;;5030497;28;20513;-50
2023/05/29 07:05:51;;;;;;;5.60;5.00;;;23.40;43.80;;;;;;5034430;28;20466;-49
2023/05/29 07:08:17;;;;;;;5.10;4.60;;;23.50;43.20;;;;;;5054389;28;20431;-49
2023/05/29 07:10:43;;;;;;;8.57;5.03;;;23.60;44.10;;;;;;5035969;28;20193;-49
2023/05/29 07:13:08;;;;;;;7.13;5.60;;;23.70;44.10;;;;;;5034158;28;20699;-49
2023/05/29 07:15:34;;;;;;;7.50;5.10;;;23.70;44.20;;;;;;5034321;28;20563;-50
2023/05/29 07:18:00;;;;;;;7.07;5.47;;;23.70;43.80;;;;;;5034301;28;20563;-49
2023/05/29 07:20:26;;;;;;;10.17;5.37;;;23.90;43.90;;;;;;5034383;28;20193;-49
2023/05/29 07:22:51;;;;;;;7.23;4.83;;;23.80;43.90;;;;;;5034103;28;20240;-50
2023/05/29 07:25:17;;;;;;;7.40;5.33;;;24.00;44.30;;;;;;5034185;28;20255;-50
2023/05/29 07:27:42;;;;;;;6.50;5.23;;;24.00;43.10;;;;;;5034179;28;20272;-50
2023/05/29 07:30:08;;;;;;;6.17;4.70;;;24.10;43.20;;;;;;5034136;28;20197;-50
2023/05/29 07:32:34;;;;;;;6.30;5.40;;;24.30;43.20;;;;;;5032102;28;20634;-50
2023/05/29 07:35:00;;;;;;;5.20;4.73;;;24.40;43.40;;;;;;5033648;28;20221;-49
2023/05/29 07:37:25;;;;;;;7.93;4.37;;;24.40;42.80;;;;;;5034232;28;20202;-50
2023/05/29 07:39:51;;;;;;;7.03;5.53;;;24.60;44.00;;;;;;5034259;28;20208;-52
2023/05/29 07:42:16;;;;;;;6.33;5.03;;;24.80;42.60;;;;;;5033454;28;20272;-49
2023/05/29 07:44:42;;;;;;;5.90;5.30;;;24.90;43.00;;;;;;5033808;28;20561;-49
2023/05/29 07:47:09;;;;;;;8.13;5.67;;;25.10;42.30;;;;;;5033899;28;20205;-50
2023/05/29 07:49:35;;;;;;;10.50;5.60;;;25.20;42.50;;;;;;5033737;28;20703;-50
2023/05/29 07:52:02;;;;;;;6.97;5.53;;;25.40;43.20;;;;;;5033824;28;20454;-51
2023/05/29 07:54:27;;;;;;;6.73;4.90;;;25.50;42.00;;;;;;5048972;28;20419;-50
2023/05/29 07:56:54;;;;;;;5.80;5.20;;;25.70;42.30;;;;;;5042535;28;20443;-52
2023/05/29 07:59:19;;;;;;;7.83;4.90;;;25.90;42.10;;;;;;5032632;28;20185;-49
2023/05/29 08:01:45;;;;;;;6.00;5.50;;;26.10;40.80;;;;;;5033439;28;20903;-49
2023/05/29 08:04:11;;;;;;;5.30;4.80;;;26.20;40.40;;;;;;5032876;28;20193;-50
2023/05/29 08:06:36;;;;;;;7.47;5.03;;;26.30;40.40;;;;;;5044803;28;20263;-49
2023/05/29 08:09:03;;;;;;;7.03;5.33;;;26.40;40.10;;;;;;5048400;28;20421;-50
2023/05/29 08:11:29;;;;;;;7.10;5.07;;;26.40;40.30;;;;;;5033479;28;20212;-50
2023/05/29 08:13:55;;;;;;;11.47;5.53;;;26.50;40.20;;;;;;5032997;28;20424;-50
2023/05/29 08:16:22;;;;;;;5.50;4.93;;;26.50;39.70;;;;;;5033404;28;20229;-50
2023/05/29 08:18:47;;;;;;;7.60;5.60;;;26.60;39.90;;;;;;5033026;28;20559;-49
2023/05/29 08:21:13;;;;;;;5.77;5.27;;;26.50;40.00;;;;;;5033299;28;20625;-50
2023/05/29 08:23:39;;;;;;;5.73;5.00;;;26.50;40.40;;;;;;5030923;28;20641;-52
2023/05/29 08:26:05;;;;;;;4.83;4.33;;;26.60;40.10;;;;;;5033102;28;20565;-51
2023/05/29 08:28:30;;;;;;;6.33;5.20;;;26.80;40.10;;;;;;5033124;28;20420;-53
2023/05/29 08:30:56;;;;;;;5.83;4.73;;;26.80;40.10;;;;;;5033054;28;20198;-50
2023/05/29 08:33:22;;;;;;;6.83;4.90;;;26.90;40.40;;;;;;5032631;28;20637;-51
2023/05/29 08:35:47;;;;;;;7.80;5.70;;;27.10;39.80;;;;;;5032771;28;20320;-50
2023/05/29 08:38:13;;;;;;;5.47;4.53;;;27.00;39.90;;;;;;5032787;28;20255;-50
2023/05/29 08:40:39;;;;;;;7.73;5.10;;;27.20;40.00;;;;;;5032925;28;20239;-51
2023/05/29 08:43:15;;;;;;;4.67;4.10;;;27.40;39.40;;;;;;5032289;28;20774;-50
2023/05/29 08:45:43;;;;;;;7.07;4.73;;;27.70;39.40;;;;;;5032544;28;20434;-49
2023/05/29 08:48:10;;;;;;;9.83;4.67;;;28.00;39.30;;;;;;5032389;28;20432;-49
2023/05/29 08:50:43;;;;;;;6.20;4.83;;;28.30;38.40;;;;;;5031097;28;20507;-48
2023/05/29 08:53:10;;;;;;;7.70;4.90;;;28.40;38.90;;;;;;5034316;28;20431;-49
2023/05/29 08:55:36;;;;;;;6.00;5.40;;;28.70;38.70;;;;;;5032461;28;20480;-48
2023/05/29 08:58:03;;;;;;;6.30;4.80;;;28.90;37.30;;;;;;5032826;28;20939;-48
2023/05/29 09:00:29;;;;;;;5.57;4.67;;;29.10;36.70;;;;;;5032367;28;20597;-48
2023/05/29 09:02:55;;;;;;;5.17;4.67;;;29.10;36.70;;;;;;5032024;28;20438;-48
2023/05/29 09:05:21;;;;;;;6.83;4.83;;;29.20;36.50;;;;;;5033214;28;20233;-49
2023/05/29 09:07:49;;;;;;;7.27;5.20;;;29.40;36.30;;;;;;5052125;28;20470;-51
2023/05/29 09:10:15;;;;;;;6.77;5.83;;;29.50;36.80;;;;;;5037253;28;20504;-48
2023/05/29 09:12:41;;;;;;;4.93;4.43;;;29.70;35.90;;;;;;5031747;28;20927;-48
2023/05/29 09:15:20;;;;;;;6.70;5.33;;;29.90;35.70;;;;;;5032071;28;20248;-49
2023/05/29 09:17:53;;;;;;;6.40;4.70;;;30.10;34.90;;;;;;5030892;28;20911;-51
2023/05/29 09:20:23;;;;;;;6.73;5.10;;;30.30;33.90;;;;;;5032273;28;20439;-47
2023/05/29 09:23:02;;;;;;;6.93;4.73;;;30.40;33.60;;;;;;5031619;28;20432;-48
2023/05/29 09:25:31;;;;;;;5.23;4.70;;;30.70;33.50;;;;;;5032084;28;20485;-48
2023/05/29 09:27:59;;;;;;;5.30;4.80;;;30.90;32.80;;;;;;5031992;28;20805;-48
2023/05/29 09:30:32;;;;;;;4.77;4.23;;;31.00;32.10;;;;;;5038070;28;20507;-49
2023/05/29 09:33:02;;;;;;;4.93;3.90;;;31.00;31.40;;;;;;5051306;28;20439;-48
2023/05/29 09:35:44;;;;;;;8.10;5.10;;;30.90;30.00;;;;;;5051896;28;20483;-48
2023/05/29 09:38:12;;;;;;;5.13;4.63;;;30.60;29.60;;;;;;5051692;28;20423;-49
2023/05/29 09:40:40;;;;;;;5.90;4.67;;;30.70;30.20;;;;;;5051737;28;20424;-48
2023/05/29 09:43:19;;;;;;;6.97;5.10;;;30.80;29.30;;;;;;5049685;28;20462;-51
2023/05/29 09:45:49;;;;;;;6.93;4.60;;;30.80;28.90;;;;;;5051803;28;20443;-50
2023/05/29 09:48:28;;;;;;;5.17;4.47;;;30.80;29.90;;;;;;5051592;28;20568;-48
2023/05/29 09:50:57;;;;;;;6.57;4.40;;;30.80;28.40;;;;;;5051421;28;20422;-49
2023/05/29 09:53:24;;;;;;;7.33;4.80;;;30.80;28.90;;;;;;5044115;28;20950;-49
2023/05/29 09:55:52;;;;;;;4.20;3.80;;;31.10;28.90;;;;;;5031486;28;20480;-49
2023/05/29 09:58:18;;;;;;;4.90;4.37;;;31.50;28.60;;;;;;5031512;28;20424;-49
2023/05/29 10:00:45;;;;;;;6.70;4.80;;;31.60;27.60;;;;;;5031595;28;20526;-48
2023/05/29 10:03:12;;;;;;;5.33;4.77;;;31.60;28.30;;;;;;5031079;28;20447;-48
2023/05/29 10:05:41;;;;;;;5.20;3.90;;;31.20;28.20;;;;;;5034541;28;20492;-48
2023/05/29 10:08:14;;;;;;;4.70;4.30;;;31.00;29.60;;;;;;5051432;28;20462;-49
2023/05/29 10:10:46;;;;;;;7.00;4.80;;;31.30;29.60;;;;;;5031690;28;20467;-48
2023/05/29 10:13:13;;;;;;;4.97;4.23;;;31.50;29.00;;;;;;5030970;28;20494;-51
2023/05/29 10:15:41;;;;;;;4.63;3.60;;;31.80;29.10;;;;;;5031243;28;20523;-49
2023/05/29 10:18:13;;;;;;;6.37;4.27;;;32.20;29.00;;;;;;5031455;28;20520;-48
2023/05/29 10:20:41;;;;;;;4.97;4.47;;;32.30;28.00;;;;;;5037934;28;20431;-48
2023/05/29 10:23:07;;;;;;;4.70;4.30;;;32.60;28.70;;;;;;5033065;28;20445;-49
2023/05/29 10:25:35;;;;;;;4.77;4.13;;;32.60;28.30;;;;;;5051304;28;20825;-49
2023/05/29 10:28:02;;;;;;;4.67;4.00;;;32.90;28.20;;;;;;5051182;28;20454;-48
2023/05/29 10:30:43;;;;;;;4.40;3.80;;;33.00;27.60;;;;;;5051064;28;20828;-50
2023/05/29 10:33:30;;;;;;;8.83;3.80;;;32.90;26.90;;;;;;5050677;28;20472;-48
2023/05/29 10:36:16;;;;;;;4.40;3.80;;;32.70;26.80;;;;;;5049765;28;20521;-52
2023/05/29 10:38:45;;;;;;;4.87;4.40;;;32.60;27.50;;;;;;5051173;28;20435;-49
2023/05/29 10:41:29;;;;;;;5.77;4.27;;;32.70;27.90;;;;;;5051406;28;20423;-48
2023/05/29 10:44:02;;;;;;;4.80;4.33;;;32.70;25.30;;;;;;5054613;28;20542;-52
2023/05/29 10:46:44;;;;;;;4.73;4.00;;;32.70;24.90;;;;;;5054797;28;20439;-49
2023/05/29 10:49:16;;;;;;;5.80;3.90;;;32.70;25.70;;;;;;5054768;28;20446;-50
2023/05/29 10:51:42;;;;;;;4.67;4.17;;;32.80;26.40;;;;;;5054754;28;20458;-49
2023/05/29 10:54:07;;;;;;;4.63;4.23;;;33.10;26.00;;;;;;5041284;28;20480;-51
2023/05/29 10:56:33;;;;;;;5.50;4.80;;;33.40;26.70;;;;;;5034835;28;20684;-50
2023/05/29 10:59:03;;;;;;;4.70;3.90;;;33.60;25.70;;;;;;5034792;28;20239;-51
2023/05/29 11:01:30;;;;;;;5.13;4.37;;;33.60;26.20;;;;;;5034665;28;20201;-50
2023/05/29 11:04:17;;;;;;;5.57;3.90;;;33.90;26.10;;;;;;5032485;28;20431;-49
2023/05/29 11:06:44;;;;;;;6.20;3.87;;;33.90;25.70;;;;;;5047252;28;20477;-50
2023/05/29 11:09:31;;;;;;;4.27;3.87;;;33.80;25.20;;;;;;5048756;28;20902;-52
2023/05/29 11:12:25;;;;;;;3.70;3.40;;;33.60;26.10;;;;;;5034266;28;20782;-49
2023/05/29 11:15:10;;;;;;;4.00;3.60;;;33.80;25.60;;;;;;5034526;28;20475;-52
2023/05/29 11:17:38;;;;;;;3.90;3.60;;;33.80;25.70;;;;;;5042616;28;20454;-52
2023/05/29 11:20:07;;;;;;;5.47;3.70;;;33.90;24.90;;;;;;5054212;28;20435;-52
2023/05/29 11:22:49;;;;;;;4.40;4.00;;;33.90;24.20;;;;;;5053622;28;20438;-51
2023/05/29 11:25:15;;;;;;;4.10;3.70;;;34.10;24.40;;;;;;5053983;28;20806;-52
2023/05/29 11:27:44;;;;;;;4.47;3.93;;;34.00;24.80;;;;;;5054194;28;20428;-53
2023/05/29 11:30:10;;;;;;;5.10;3.50;;;34.40;24.80;;;;;;5052462;28;20423;-52
2023/05/29 11:32:37;;;;;;;4.03;3.70;;;34.50;24.30;;;;;;5053114;28;20423;-53
2023/05/29 11:35:10;;;;;;;5.43;4.13;;;34.40;23.20;;;;;;5048747;28;20567;-52
2023/05/29 11:37:37;;;;;;;4.30;3.73;;;34.30;23.50;;;;;;5034055;28;20472;-53
2023/05/29 11:40:11;;;;;;;4.23;3.80;;;33.90;22.90;;;;;;5033779;28;20428;-52
2023/05/29 11:42:44;;;;;;;4.27;3.30;;;34.10;24.60;;;;;;5033365;28;20431;-53
2023/05/29 11:45:19;;;;;;;4.30;3.33;;;34.30;24.90;;;;;;5033830;28;20432;-51
2023/05/29 11:47:51;;;;;;;4.20;3.60;;;34.10;24.90;;;;;;5033674;28;20441;-51
2023/05/29 11:50:22;;;;;;;5.60;3.97;;;34.20;23.90;;;;;;5033507;28;20483;-51
2023/05/29 11:52:47;;;;;;;4.43;3.43;;;34.10;23.40;;;;;;5034404;28;20530;-52
2023/05/29 11:55:13;;;;;;;3.77;3.47;;;34.20;23.10;;;;;;5053011;28;20610;-53
2023/05/29 11:57:39;;;;;;;3.87;3.20;;;34.20;23.90;;;;;;5034756;28;20268;-49
2023/05/29 12:00:09;;;;;;;3.80;3.40;;;34.00;22.80;;;;;;5033680;28;20235;-52
2023/05/29 12:02:36;;;;;;;4.17;3.77;;;33.80;23.50;;;;;;5033257;28;20208;-52
2023/05/29 12:05:04;;;;;;;4.33;3.47;;;33.90;24.10;;;;;;5033384;28;20455;-51
2023/05/29 12:07:30;;;;;;;3.50;3.20;;;33.70;22.50;;;;;;5051947;28;20431;-53
2023/05/29 12:09:57;;;;;;;5.47;4.07;;;33.70;23.40;;;;;;5041219;28;20420;-53
2023/05/29 12:12:23;;;;;;;4.20;3.80;;;33.70;23.10;;;;;;5033015;28;20606;-51
2023/05/29 12:14:53;;;;;;;3.67;3.23;;;33.40;22.50;;;;;;5033378;28;20431;-51
2023/05/29 12:17:20;;;;;;;4.23;3.83;;;33.70;23.40;;;;;;5033028;28;20527;-51
2023/05/29 12:19:46;;;;;;;3.80;3.50;;;33.90;22.90;;;;;;5033215;28;20424;-51
2023/05/29 12:22:11;;;;;;;3.90;3.60;;;34.00;22.60;;;;;;5031137;28;20432;-52
2023/05/29 12:24:37;;;;;;;4.00;3.60;;;34.00;22.80;;;;;;5033070;28;20197;-52
2023/05/29 12:27:07;;;;;;;4.97;3.60;;;34.10;22.20;;;;;;5032876;28;20265;-53
2023/05/29 12:29:33;;;;;;;5.63;3.83;;;34.00;21.90;;;;;;5032996;28;20189;-50
2023/05/29 12:31:59;;;;;;;4.53;3.70;;;34.30;22.40;;;;;;5032345;28;20428;-52
2023/05/29 12:34:25;;;;;;;4.43;4.03;;;34.50;21.90;;;;;;5032829;28;20419;-54
2023/05/29 12:36:50;;;;;;;5.00;4.10;;;34.40;22.30;;;;;;5032880;28;20479;-52
2023/05/29 12:39:16;;;;;;;4.10;3.67;;;34.50;22.70;;;;;;5032718;28;20197;-53
2023/05/29 12:41:42;;;;;;;4.50;3.60;;;34.60;22.50;;;;;;5032619;28;20200;-53
2023/05/29 12:44:08;;;;;;;4.43;4.03;;;34.80;22.30;;;;;;5032457;28;20217;-53
2023/05/29 12:46:39;;;;;;;4.33;3.93;;;34.90;22.70;;;;;;5032667;28;20284;-54
2023/05/29 12:49:16;;;;;;;3.60;3.30;;;34.80;21.70;;;;;;5030928;28;20519;-49